createdAt,value
2022-10-01T00:01:04.805Z,14.32
2022-10-01T00:03:34.029Z,13.05
2022-10-01T00:06:04.543Z,12.75
2022-10-01T00:08:32.536Z,13.63
2022-10-01T00:11:02.430Z,13.38
2022-10-01T00:13:33.233Z,12.48
2022-10-01T00:16:00.327Z,13.80
2022-10-01T00:18:27.268Z,13.25
2022-10-01T00:20:54.217Z,13.57
2022-10-01T00:23:21.155Z,13.40
2022-10-01T00:25:50.270Z,13.23
2022-10-01T00:28:17.242Z,12.18
2022-10-01T00:30:48.107Z,13.70
2022-10-01T00:33:15.171Z,12.77
2022-10-01T00:35:42.295Z,12.93
2022-10-01T00:38:09.245Z,14.15
2022-10-01T08:12:44.740Z,5.40
2022-10-01T08:15:14.238Z,5.15
2022-10-01T08:17:41.412Z,4.82
2022-10-01T08:20:10.813Z,5.63
2022-10-01T08:22:41.827Z,5.38
2022-10-01T08:27:36.901Z,4.90
2022-10-01T08:30:04.786Z,4.72
2022-10-01T08:32:31.862Z,5.20
2022-10-01T08:35:00.095Z,4.82
2022-10-01T08:37:28.680Z,5.13
2022-10-01T08:39:56.543Z,4.53
2022-10-01T08:42:35.548Z,4.60
2022-10-01T08:45:07.058Z,4.78
2022-10-01T08:47:44.338Z,4.28
2022-10-01T08:50:39.027Z,4.20
2022-10-01T08:53:15.809Z,5.00
2022-10-01T08:55:43.692Z,4.47
2022-10-01T08:58:15.035Z,4.53
2022-10-01T09:00:44.808Z,5.03
2022-10-01T09:03:13.978Z,4.53
2022-10-01T09:05:51.363Z,5.15
2022-10-01T10:11:44.945Z,4.07
2022-10-01T10:14:32.794Z,3.92
2022-10-01T10:17:12.568Z,3.90
2022-10-01T10:19:41.276Z,3.80
2022-10-01T10:22:23.281Z,3.75
2022-10-01T10:24:50.670Z,3.70
2022-10-01T10:27:27.641Z,4.43
2022-10-01T10:30:16.341Z,4.65
2022-10-01T17:35:23.860Z,6.32
2022-10-01T17:37:50.815Z,6.47
2022-10-01T17:40:17.853Z,5.85
2022-10-01T17:42:44.865Z,6.65
2022-10-01T17:45:13.851Z,6.60
2022-10-01T17:47:49.109Z,8.48
2022-10-01T17:50:16.415Z,9.05
2022-10-01T17:52:43.805Z,8.18
2022-10-01T17:55:12.301Z,8.98
2022-10-01T17:57:39.556Z,7.70
2022-10-01T18:00:07.526Z,7.72
2022-10-01T18:02:42.139Z,6.63
2022-10-01T18:15:02.460Z,4.28
2022-10-01T18:17:33.620Z,4.50
